Time;durP1;ratioP1;P1;durP2;ratioP2;P2;SDS_P1;SDS_P2;PMS_P1;PMS_P2;Temp;Humidity;BMP_temperature;BMP_pressure;BME280_temperature;BME280_humidity;BME280_pressure;Samples;Min_cycle;Max_cycle;Signal;HPM_P1;HPM_P2
2023/03/26 00:01:48;;;;;;;8.43;2.60;;;8.00;99.90;;;;;;5006972;28;20478;-67
2023/03/26 00:04:18;;;;;;;11.57;3.63;;;8.00;99.90;;;;;;5009934;28;21242;-67
2023/03/26 00:06:47;;;;;;;9.13;2.50;;;8.00;99.90;;;;;;5010153;28;20948;-67
2023/03/26 00:09:15;;;;;;;10.67;2.13;;;8.00;99.90;;;;;;5011629;28;20452;-67
2023/03/26 00:11:42;;;;;;;6.50;2.50;;;8.10;99.90;;;;;;5011235;28;20873;-67
2023/03/26 00:14:12;;;;;;;9.67;2.87;;;8.00;99.90;;;;;;5011179;28;20510;-68
2023/03/26 00:16:41;;;;;;;16.43;2.90;;;8.10;99.90;;;;;;5011782;28;20926;-68
2023/03/26 00:19:08;;;;;;;14.70;2.80;;;8.10;99.90;;;;;;5011675;28;20500;-67
2023/03/26 00:21:36;;;;;;;11.73;2.53;;;8.10;99.90;;;;;;5011336;28;20543;-67
2023/03/26 00:24:05;;;;;;;14.60;2.80;;;8.10;99.90;;;;;;5011020;28;20524;-67
2023/03/26 00:26:33;;;;;;;13.43;2.50;;;8.20;99.90;;;;;;5011103;28;20477;-67
2023/03/26 00:29:00;;;;;;;13.93;4.00;;;8.30;99.90;;;;;;5011663;28;20527;-67
2023/03/26 00:31:28;;;;;;;14.80;3.77;;;8.30;99.90;;;;;;5011230;28;20462;-69
2023/03/26 00:33:54;;;;;;;12.27;2.40;;;8.30;99.90;;;;;;5011269;28;20464;-68
2023/03/26 00:36:24;;;;;;;10.47;2.43;;;8.30;99.90;;;;;;5011219;28;20506;-67
2023/03/26 00:38:51;;;;;;;11.13;3.00;;;8.30;99.90;;;;;;5011302;28;20492;-67
2023/03/26 00:41:24;;;;;;;15.87;2.90;;;8.30;99.90;;;;;;5010769;28;20462;-67
2023/03/26 00:43:54;;;;;;;7.33;2.80;;;8.40;99.90;;;;;;5011325;28;20562;-67
2023/03/26 00:46:22;;;;;;;13.53;2.43;;;8.40;99.90;;;;;;5011463;28;20567;-68
2023/03/26 00:48:50;;;;;;;9.77;2.87;;;8.40;99.90;;;;;;5013656;28;20457;-67
2023/03/26 00:51:19;;;;;;;11.53;2.23;;;8.40;99.90;;;;;;5010131;28;20804;-67
2023/03/26 00:53:48;;;;;;;8.27;2.83;;;8.40;99.90;;;;;;5014777;28;20966;-66
2023/03/26 00:56:15;;;;;;;10.00;2.80;;;8.40;99.90;;;;;;5014922;28;20482;-67
2023/03/26 00:58:42;;;;;;;15.60;2.83;;;8.40;99.90;;;;;;5015192;28;20469;-67
2023/03/26 01:01:12;;;;;;;12.30;3.37;;;8.50;99.90;;;;;;5015040;28;20484;-67
2023/03/26 01:03:41;;;;;;;12.53;3.53;;;8.40;99.90;;;;;;5012027;28;20498;-67
2023/03/26 01:06:12;;;;;;;19.50;3.90;;;8.40;99.90;;;;;;5015090;28;20559;-68
2023/03/26 01:08:41;;;;;;;17.87;3.37;;;8.40;99.90;;;;;;5014706;28;20519;-67
2023/03/26 01:11:12;;;;;;;23.17;3.70;;;8.40;99.90;;;;;;5014534;28;20459;-67
2023/03/26 01:13:44;;;;;;;16.93;3.43;;;8.40;99.90;;;;;;5013572;28;20466;-67
2023/03/26 01:16:26;;;;;;;8.90;2.70;;;8.40;99.90;;;;;;5014985;28;20477;-67
2023/03/26 01:18:53;;;;;;;8.40;2.60;;;8.40;99.90;;;;;;5014619;28;20528;-67
2023/03/26 01:21:28;;;;;;;10.73;2.67;;;8.40;99.90;;;;;;5014620;28;20462;-67
2023/03/26 01:23:59;;;;;;;7.57;3.10;;;8.30;99.90;;;;;;5014243;28;20465;-68
2023/03/26 01:26:43;;;;;;;23.17;2.50;;;8.20;99.90;;;;;;5014626;28;20453;-67
2023/03/26 01:29:19;;;;;;;10.17;2.93;;;8.20;99.90;;;;;;5008789;28;20517;-67
2023/03/26 01:31:56;;;;;;;14.83;3.30;;;8.10;99.90;;;;;;5013683;28;20464;-67
2023/03/26 01:34:32;;;;;;;14.43;3.40;;;8.10;99.90;;;;;;5014369;28;20477;-67
2023/03/26 01:37:07;;;;;;;18.63;3.40;;;8.00;99.90;;;;;;5012196;28;20485;-67
2023/03/26 01:39:48;;;;;;;16.57;3.60;;;8.00;99.90;;;;;;5014140;28;20489;-67
2023/03/26 01:42:21;;;;;;;9.57;2.53;;;7.90;99.90;;;;;;5014148;28;20539;-70
2023/03/26 01:44:52;;;;;;;12.00;2.70;;;7.80;99.90;;;;;;5013707;28;20995;-68
2023/03/26 01:47:20;;;;;;;14.00;5.43;;;7.80;99.90;;;;;;5014421;28;20457;-67
2023/03/26 01:49:47;;;;;;;12.13;3.57;;;7.70;99.90;;;;;;5009863;28;20490;-68
2023/03/26 01:52:17;;;;;;;11.20;3.03;;;7.70;99.90;;;;;;5014046;28;20856;-68
2023/03/26 01:54:45;;;;;;;14.23;3.00;;;7.60;99.90;;;;;;5013973;28;20477;-68
2023/03/26 01:57:17;;;;;;;7.93;2.70;;;7.60;99.90;;;;;;5013659;28;20808;-68
2023/03/26 02:00:00;;;;;;;18.60;3.67;;;7.60;99.90;;;;;;5013138;28;20544;-68
2023/03/26 02:02:35;;;;;;;13.57;2.77;;;7.50;99.90;;;;;;5010730;28;21014;-68
2023/03/26 02:05:09;;;;;;;9.37;2.90;;;7.60;99.90;;;;;;5013686;28;20483;-68
2023/03/26 02:07:42;;;;;;;22.30;3.73;;;7.60;99.90;;;;;;5013366;28;20475;-68
2023/03/26 02:10:15;;;;;;;10.10;2.83;;;7.60;99.90;;;;;;5014049;28;20446;-68
2023/03/26 02:12:43;;;;;;;12.90;3.20;;;7.60;99.90;;;;;;5013694;28;20465;-68
2023/03/26 02:15:11;;;;;;;15.43;4.07;;;7.70;99.90;;;;;;5013774;28;20526;-68
2023/03/26 02:17:39;;;;;;;10.80;2.73;;;7.70;99.90;;;;;;5013754;28;20456;-68
2023/03/26 02:20:08;;;;;;;14.97;2.90;;;7.70;99.90;;;;;;5013312;28;20567;-68
2023/03/26 02:22:39;;;;;;;10.90;3.17;;;7.70;99.90;;;;;;5013500;28;20450;-68
2023/03/26 02:25:07;;;;;;;14.07;3.10;;;7.70;99.90;;;;;;5013615;28;20814;-68
2023/03/26 02:27:35;;;;;;;18.63;3.60;;;7.70;99.90;;;;;;5012751;28;20948;-68
2023/03/26 02:30:02;;;;;;;7.53;2.60;;;7.70;99.90;;;;;;5013485;28;20455;-68
2023/03/26 02:32:29;;;;;;;10.80;3.47;;;7.60;99.90;;;;;;5013236;28;20527;-68
2023/03/26 02:34:56;;;;;;;14.20;3.00;;;7.60;99.90;;;;;;5012894;28;20476;-67
2023/03/26 02:37:22;;;;;;;17.83;3.80;;;7.50;99.90;;;;;;5013522;28;20451;-68
2023/03/26 02:39:49;;;;;;;13.20;3.20;;;7.50;99.90;;;;;;5013291;28;20484;-68
2023/03/26 02:42:16;;;;;;;18.80;3.90;;;7.50;99.90;;;;;;5013107;28;20453;-67
2023/03/26 02:44:44;;;;;;;13.83;3.33;;;7.40;99.90;;;;;;5013109;28;20467;-68
2023/03/26 02:47:10;;;;;;;17.70;3.47;;;7.30;99.90;;;;;;5012676;28;20449;-67
2023/03/26 02:49:37;;;;;;;20.23;3.23;;;7.30;99.90;;;;;;5007779;28;20457;-68
2023/03/26 02:52:05;;;;;;;13.30;3.63;;;7.20;99.90;;;;;;5008792;28;20461;-68
2023/03/26 02:54:32;;;;;;;16.47;3.20;;;7.20;99.90;;;;;;5012341;28;20899;-68
2023/03/26 02:56:58;;;;;;;10.83;2.80;;;7.20;99.90;;;;;;5012961;28;20504;-67
2023/03/26 02:59:25;;;;;;;14.33;3.03;;;7.10;99.90;;;;;;5012958;28;20516;-68
2023/03/26 03:01:54;;;;;;;16.37;3.20;;;7.10;99.90;;;;;;5008880;28;20925;-68
2023/03/26 03:04:20;;;;;;;14.40;3.60;;;7.10;99.90;;;;;;5012744;28;20467;-68
2023/03/26 03:06:51;;;;;;;23.83;4.00;;;7.10;99.90;;;;;;5012460;28;20462;-68
2023/03/26 03:09:18;;;;;;;16.40;3.77;;;7.10;99.90;;;;;;5012973;28;20455;-68
2023/03/26 03:11:45;;;;;;;14.17;2.60;;;7.10;99.90;;;;;;5010859;28;20468;-67
2023/03/26 03:14:12;;;;;;;9.70;4.63;;;7.10;99.90;;;;;;5012352;28;20491;-67
2023/03/26 03:16:38;;;;;;;16.80;3.40;;;7.10;99.90;;;;;;5012538;28;21174;-67
2023/03/26 03:19:06;;;;;;;16.63;2.87;;;7.00;99.90;;;;;;5012845;28;20520;-67
2023/03/26 03:21:33;;;;;;;13.10;3.17;;;6.90;99.90;;;;;;5012347;28;20487;-67
2023/03/26 03:24:00;;;;;;;15.20;3.60;;;6.90;99.90;;;;;;5004343;28;21007;-67
2023/03/26 03:26:28;;;;;;;16.83;2.87;;;6.80;99.90;;;;;;5012203;28;20448;-67
2023/03/26 03:28:56;;;;;;;9.77;3.00;;;6.80;99.90;;;;;;5011651;28;20556;-67
2023/03/26 03:31:24;;;;;;;5.47;2.60;;;6.70;99.90;;;;;;5012478;28;20443;-67
2023/03/26 03:33:51;;;;;;;12.53;2.60;;;6.70;99.90;;;;;;5012106;28;20461;-67
2023/03/26 03:36:22;;;;;;;18.10;3.07;;;6.70;99.90;;;;;;5012358;28;20539;-67
2023/03/26 03:38:50;;;;;;;14.70;3.27;;;6.70;99.90;;;;;;5012029;28;20514;-68
2023/03/26 03:41:17;;;;;;;22.93;3.80;;;6.70;99.90;;;;;;5011163;28;20488;-67
2023/03/26 03:43:44;;;;;;;15.33;2.93;;;6.70;99.90;;;;;;5011706;28;20494;-67
2023/03/26 03:46:11;;;;;;;8.97;3.60;;;6.70;99.90;;;;;;5012033;28;21009;-67
2023/03/26 03:48:38;;;;;;;7.50;2.80;;;6.70;99.90;;;;;;5011921;28;20510;-67
2023/03/26 03:51:05;;;;;;;8.20;2.60;;;6.80;99.90;;;;;;5005786;28;21089;-67
2023/03/26 03:53:35;;;;;;;7.43;2.53;;;6.80;99.90;;;;;;5011847;28;20480;-67
2023/03/26 03:56:03;;;;;;;17.13;3.27;;;6.80;99.90;;;;;;5011375;28;20479;-67
2023/03/26 03:58:30;;;;;;;12.57;2.93;;;6.90;99.90;;;;;;5012309;28;20542;-67
2023/03/26 04:00:59;;;;;;;14.43;3.60;;;6.80;99.90;;;;;;5011631;28;20495;-67
2023/03/26 04:03:26;;;;;;;18.90;3.17;;;6.80;99.90;;;;;;5011327;28;20534;-67
2023/03/26 04:05:54;;;;;;;9.90;2.93;;;6.80;99.90;;;;;;5011475;28;20483;-67
2023/03/26 04:08:21;;;;;;;13.50;3.17;;;6.80;99.90;;;;;;5011507;28;20459;-67
2023/03/26 04:10:50;;;;;;;13.83;3.20;;;6.70;99.90;;;;;;5011572;28;20450;-68
2023/03/26 04:13:17;;;;;;;16.43;3.37;;;6.70;99.90;;;;;;5011510;28;20510;-67
2023/03/26 04:15:44;;;;;;;12.10;3.13;;;6.70;99.90;;;;;;5011462;28;20467;-67
2023/03/26 04:18:11;;;;;;;10.33;3.17;;;6.70;99.90;;;;;;5011793;28;20934;-67
2023/03/26 04:20:39;;;;;;;6.87;2.60;;;6.60;99.90;;;;;;5011330;28;20493;-67
2023/03/26 04:23:07;;;;;;;15.30;3.10;;;6.60;99.90;;;;;;5010631;28;20487;-67
2023/03/26 04:25:35;;;;;;;9.03;3.17;;;6.60;99.90;;;;;;5011410;28;20480;-67
2023/03/26 04:28:07;;;;;;;11.03;3.07;;;6.50;99.90;;;;;;5011045;28;20480;-67
2023/03/26 04:30:35;;;;;;;11.27;2.70;;;6.50;99.90;;;;;;5011174;28;20458;-67
2023/03/26 04:33:03;;;;;;;18.03;3.57;;;6.40;99.90;;;;;;5011187;28;20569;-67
2023/03/26 04:35:33;;;;;;;14.10;3.53;;;6.40;99.90;;;;;;5010921;28;20475;-67
2023/03/26 04:38:00;;;;;;;7.70;3.00;;;6.40;99.90;;;;;;5011975;28;20450;-67
2023/03/26 04:40:29;;;;;;;15.07;3.43;;;6.40;99.90;;;;;;5011320;28;20497;-67
2023/03/26 04:42:57;;;;;;;9.53;2.73;;;6.40;99.90;;;;;;5011082;28;20462;-67
2023/03/26 04:45:25;;;;;;;16.37;3.10;;;6.40;99.90;;;;;;5010816;28;20489;-67
2023/03/26 04:47:51;;;;;;;23.17;4.10;;;6.50;99.90;;;;;;5011056;28;20487;-67
2023/03/26 04:50:18;;;;;;;9.83;3.40;;;6.50;99.90;;;;;;5004615;28;20541;-67
2023/03/26 04:52:45;;;;;;;14.33;3.10;;;6.50;99.90;;;;;;5011235;28;20484;-67
2023/03/26 04:55:19;;;;;;;11.30;2.90;;;6.60;99.90;;;;;;5011232;28;20472;-68
2023/03/26 04:57:52;;;;;;;18.63;3.30;;;6.60;99.90;;;;;;5011386;28;20454;-68
2023/03/26 05:00:20;;;;;;;17.33;3.60;;;6.70;99.90;;;;;;5010867;28;20535;-67
2023/03/26 05:02:49;;;;;;;12.13;2.73;;;6.70;99.90;;;;;;5005741;28;20470;-70
2023/03/26 05:05:15;;;;;;;11.77;2.97;;;6.80;99.90;;;;;;5011193;28;20469;-70
2023/03/26 05:07:42;;;;;;;13.67;3.20;;;6.80;99.90;;;;;;5011228;28;20455;-70
2023/03/26 05:10:12;;;;;;;12.30;2.57;;;6.80;99.90;;;;;;5011111;28;20455;-70
2023/03/26 05:12:39;;;;;;;15.67;3.40;;;6.90;99.90;;;;;;5010428;28;20469;-70
2023/03/26 05:15:07;;;;;;;12.73;2.67;;;6.90;99.90;;;;;;5004023;28;20894;-69
2023/03/26 05:17:40;;;;;;;12.40;3.03;;;6.90;99.90;;;;;;5010489;28;20451;-70
2023/03/26 05:20:15;;;;;;;15.13;3.00;;;7.00;99.90;;;;;;5010964;28;20486;-69
2023/03/26 05:22:42;;;;;;;10.80;3.00;;;7.00;99.90;;;;;;5010892;28;20459;-70
2023/03/26 05:25:09;;;;;;;13.00;2.87;;;7.10;99.90;;;;;;5010835;28;20485;-70
2023/03/26 05:27:36;;;;;;;10.30;2.67;;;7.10;99.90;;;;;;5010740;28;20514;-70
2023/03/26 05:30:04;;;;;;;9.40;2.60;;;7.10;99.90;;;;;;5010806;28;20458;-70
2023/03/26 05:32:31;;;;;;;12.20;3.93;;;7.10;99.90;;;;;;5010567;28;20567;-69
2023/03/26 05:34:58;;;;;;;11.20;3.23;;;7.10;99.90;;;;;;5011982;28;20475;-70
2023/03/26 05:37:29;;;;;;;16.87;3.77;;;7.10;99.90;;;;;;5014567;28;20526;-71
2023/03/26 05:39:57;;;;;;;10.77;2.97;;;7.10;99.90;;;;;;5014483;28;20462;-71
2023/03/26 05:42:23;;;;;;;14.53;3.10;;;7.10;99.90;;;;;;5013927;28;20487;-71
2023/03/26 05:44:50;;;;;;;9.90;3.03;;;7.10;99.90;;;;;;5014132;28;20531;-71
2023/03/26 05:47:17;;;;;;;10.63;2.67;;;7.10;99.90;;;;;;5014062;28;20532;-71
2023/03/26 05:49:45;;;;;;;13.83;3.07;;;7.10;99.90;;;;;;5007960;28;20466;-70
2023/03/26 05:52:14;;;;;;;12.67;3.57;;;7.10;99.90;;;;;;5014430;28;21075;-71
2023/03/26 05:54:41;;;;;;;15.17;3.20;;;7.20;99.90;;;;;;5013876;28;20479;-71
2023/03/26 05:57:08;;;;;;;12.23;3.57;;;7.20;99.90;;;;;;5006450;28;20515;-71
2023/03/26 05:59:35;;;;;;;13.90;3.50;;;7.20;99.90;;;;;;5013973;28;20952;-71
2023/03/26 06:02:02;;;;;;;13.63;4.13;;;7.20;99.90;;;;;;5008718;28;20890;-72
2023/03/26 06:04:30;;;;;;;10.20;3.70;;;7.20;99.90;;;;;;5013548;28;20509;-72
2023/03/26 06:06:57;;;;;;;15.30;3.77;;;7.20;99.90;;;;;;5013805;28;20463;-71
2023/03/26 06:09:24;;;;;;;10.40;3.17;;;7.20;99.90;;;;;;5013856;28;20454;-71
2023/03/26 06:11:52;;;;;;;12.90;3.37;;;7.10;99.90;;;;;;5013707;28;20455;-71
2023/03/26 06:14:18;;;;;;;13.37;3.67;;;7.00;99.90;;;;;;5014090;28;20531;-71
2023/03/26 06:16:45;;;;;;;17.87;4.17;;;6.90;99.90;;;;;;5013123;28;20463;-71
2023/03/26 06:19:12;;;;;;;12.53;4.23;;;6.80;99.90;;;;;;5013729;28;20460;-71
2023/03/26 06:21:38;;;;;;;13.63;4.00;;;6.70;99.90;;;;;;5013093;28;20484;-71
2023/03/26 06:24:05;;;;;;;12.20;3.73;;;6.70;99.90;;;;;;5013504;28;20459;-72
2023/03/26 06:26:32;;;;;;;12.57;3.87;;;6.70;99.90;;;;;;5013790;28;20460;-72
2023/03/26 06:29:00;;;;;;;8.40;3.00;;;6.70;99.90;;;;;;5013207;28;20473;-73
2023/03/26 06:31:27;;;;;;;14.83;3.33;;;6.80;99.90;;;;;;5013506;28;20455;-73
2023/03/26 06:33:53;;;;;;;15.47;3.77;;;6.80;99.90;;;;;;5013089;28;20458;-73
2023/03/26 06:36:20;;;;;;;15.17;3.57;;;6.80;99.90;;;;;;5013322;28;20459;-73
2023/03/26 06:38:46;;;;;;;12.10;3.90;;;6.80;99.90;;;;;;5012970;28;20968;-71
2023/03/26 06:41:13;;;;;;;16.03;3.77;;;6.80;99.90;;;;;;5013152;28;20488;-73
2023/03/26 06:43:40;;;;;;;6.23;3.30;;;6.80;99.90;;;;;;5013313;28;20511;-73
2023/03/26 06:46:08;;;;;;;9.67;4.00;;;6.80;99.90;;;;;;5012597;28;20529;-73
2023/03/26 06:48:35;;;;;;;14.90;4.97;;;6.80;99.90;;;;;;5012633;28;20463;-71
2023/03/26 06:51:01;;;;;;;18.67;4.47;;;6.90;99.90;;;;;;5005725;28;20493;-71
2023/03/26 06:53:28;;;;;;;16.70;3.70;;;6.90;99.90;;;;;;5012838;28;20467;-72
2023/03/26 06:55:54;;;;;;;15.00;3.93;;;6.90;99.90;;;;;;5012531;28;20483;-72
2023/03/26 06:58:21;;;;;;;11.10;4.13;;;6.90;99.90;;;;;;5013142;28;20455;-74
2023/03/26 07:00:48;;;;;;;12.87;3.77;;;6.90;99.90;;;;;;5012850;28;20455;-74
2023/03/26 07:03:17;;;;;;;16.70;4.40;;;7.00;99.90;;;;;;5011790;28;20492;-73
2023/03/26 07:05:43;;;;;;;13.30;4.63;;;7.00;99.90;;;;;;5012631;28;20815;-73
2023/03/26 07:08:10;;;;;;;10.17;4.40;;;7.00;99.90;;;;;;5012690;28;20515;-74
2023/03/26 07:10:36;;;;;;;14.53;4.43;;;7.10;99.90;;;;;;5012715;28;20517;-74
2023/03/26 07:13:03;;;;;;;11.50;4.10;;;7.00;99.90;;;;;;5012159;28;20457;-74
2023/03/26 07:15:30;;;;;;;16.93;4.67;;;7.00;99.90;;;;;;5012648;28;20484;-73
2023/03/26 07:17:57;;;;;;;12.77;4.30;;;7.00;99.90;;;;;;5004894;28;20540;-73
2023/03/26 07:20:25;;;;;;;15.80;4.60;;;7.00;99.90;;;;;;5012175;28;20455;-73
2023/03/26 07:22:52;;;;;;;20.13;4.70;;;7.10;99.90;;;;;;5010108;28;20494;-73
2023/03/26 07:25:20;;;;;;;12.10;4.03;;;7.10;99.90;;;;;;5011154;28;20475;-74
2023/03/26 07:27:58;;;;;;;15.37;5.63;;;7.20;99.90;;;;;;5011477;28;20971;-73
2023/03/26 07:30:32;;;;;;;14.63;4.50;;;7.20;99.90;;;;;;5010660;28;20448;-73
2023/03/26 07:33:01;;;;;;;21.33;5.03;;;7.20;99.90;;;;;;5012139;28;20932;-73
2023/03/26 07:35:35;;;;;;;15.00;4.60;;;7.10;99.90;;;;;;5012545;28;20479;-73
2023/03/26 07:38:20;;;;;;;16.03;5.57;;;7.10;99.90;;;;;;5012048;28;20514;-73
2023/03/26 07:40:57;;;;;;;11.93;5.17;;;7.10;99.90;;;;;;5012063;28;20509;-72
2023/03/26 07:43:41;;;;;;;19.37;6.07;;;7.00;99.90;;;;;;5011969;28;20452;-75
2023/03/26 07:46:11;;;;;;;16.10;5.33;;;7.00;99.90;;;;;;5011171;28;20496;-71
2023/03/26 07:48:41;;;;;;;20.17;5.90;;;7.00;99.90;;;;;;5012152;28;20459;-72
2023/03/26 07:51:10;;;;;;;13.00;5.90;;;7.00;99.90;;;;;;5002048;28;21113;-72
2023/03/26 07:53:38;;;;;;;30.27;5.57;;;7.10;99.90;;;;;;5001679;28;20452;-72
2023/03/26 07:56:12;;;;;;;19.77;5.60;;;7.10;99.90;;;;;;5007821;28;20837;-72
2023/03/26 07:58:56;;;;;;;18.23;5.90;;;7.10;99.90;;;;;;5011258;28;20864;-72
2023/03/26 08:01:36;;;;;;;21.53;6.60;;;7.00;99.90;;;;;;5009613;28;20576;-72
2023/03/26 08:04:26;;;;;;;19.87;5.90;;;7.00;99.90;;;;;;5010044;28;20463;-72
2023/03/26 08:06:59;;;;;;;14.13;5.57;;;7.00;99.90;;;;;;5011270;28;20506;-72
2023/03/26 08:09:32;;;;;;;19.67;5.97;;;7.00;99.90;;;;;;5006657;28;20825;-72
2023/03/26 08:12:11;;;;;;;16.93;6.13;;;6.90;99.90;;;;;;5011079;28;20442;-72
2023/03/26 08:14:48;;;;;;;21.17;6.20;;;6.90;99.90;;;;;;5011751;28;20467;-72
2023/03/26 08:17:19;;;;;;;15.67;5.50;;;7.00;99.90;;;;;;5011581;28;20465;-75
2023/03/26 08:20:04;;;;;;;16.40;6.70;;;7.00;99.90;;;;;;5009520;28;20901;-73
2023/03/26 08:22:36;;;;;;;17.37;5.80;;;7.00;99.90;;;;;;5004177;28;20487;-73
2023/03/26 08:25:31;;;;;;;18.00;6.23;;;7.00;99.90;;;;;;5007025;28;20476;-73
2023/03/26 08:28:13;;;;;;;29.83;7.20;;;7.00;99.90;;;;;;5007885;28;20476;-74
2023/03/26 08:30:40;;;;;;;22.80;6.30;;;7.00;99.90;;;;;;5011144;28;20453;-72
2023/03/26 08:33:12;;;;;;;21.87;6.63;;;7.00;99.90;;;;;;5011323;28;20727;-72
2023/03/26 08:35:41;;;;;;;28.73;6.80;;;7.00;99.90;;;;;;5011406;28;20468;-72
2023/03/26 08:38:09;;;;;;;26.10;6.40;;;7.00;99.90;;;;;;5010158;28;20459;-72
2023/03/26 08:41:08;;;;;;;17.33;6.80;;;7.00;99.90;;;;;;5011732;28;20477;-72
2023/03/26 08:44:04;;;;;;;19.77;7.10;;;7.00;99.90;;;;;;5005906;28;20513;-74
2023/03/26 08:47:00;;;;;;;21.90;6.70;;;7.00;99.90;;;;;;5006689;28;20455;-71
2023/03/26 08:49:56;;;;;;;21.07;7.07;;;7.00;99.90;;;;;;5008029;28;20457;-71
2023/03/26 08:52:43;;;;;;;17.83;6.70;;;7.00;99.90;;;;;;5002396;28;20513;-70
2023/03/26 08:55:31;;;;;;;30.57;7.47;;;7.00;99.90;;;;;;5011021;28;20883;-72
2023/03/26 08:58:29;;;;;;;21.90;7.83;;;6.90;99.90;;;;;;5009877;28;20466;-71
2023/03/26 09:01:21;;;;;;;20.53;7.07;;;6.90;99.90;;;;;;5008236;28;20538;-72
2023/03/26 09:04:06;;;;;;;14.90;7.10;;;6.90;99.90;;;;;;5007375;28;20457;-72
2023/03/26 09:07:05;;;;;;;19.57;6.43;;;6.90;99.90;;;;;;5005400;28;20461;-72
2023/03/26 09:10:14;;;;;;;16.50;6.00;;;6.90;99.90;;;;;;5013419;28;20476;-74
2023/03/26 09:13:06;;;;;;;15.83;6.97;;;6.80;99.90;;;;;;5010063;28;20980;-71
2023/03/26 09:16:19;;;;;;;17.97;6.33;;;6.90;99.90;;;;;;5015165;28;20520;-71
2023/03/26 09:19:17;;;;;;;13.60;6.50;;;6.90;99.90;;;;;;5014485;28;20546;-70
2023/03/26 09:22:08;;;;;;;19.57;7.20;;;6.90;99.90;;;;;;4995859;28;20483;-72
2023/03/26 09:24:52;;;;;;;18.75;8.10;;;6.90;99.90;;;;;;5007867;28;20446;-73
2023/03/26 09:27:39;;;;;;;20.97;9.30;;;6.90;99.90;;;;;;5003957;28;20205;-74
2023/03/26 09:30:39;;;;;;;14.93;7.40;;;7.00;99.90;;;;;;5004354;28;20463;-73
2023/03/26 09:33:31;;;;;;;19.50;7.50;;;7.00;99.90;;;;;;5009617;28;20443;-74
2023/03/26 09:36:25;;;;;;;11.87;6.43;;;7.10;99.90;;;;;;5012033;28;20530;-74
2023/03/26 09:39:02;;;;;;;16.50;6.97;;;7.10;99.90;;;;;;5012110;28;20451;-73
2023/03/26 09:41:39;;;;;;;20.07;7.50;;;7.00;99.90;;;;;;5007442;28;20455;-73
2023/03/26 09:44:36;;;;;;;18.70;6.60;;;7.10;99.90;;;;;;5013477;28;20461;-73
2023/03/26 09:47:27;;;;;;;13.47;6.50;;;7.10;99.90;;;;;;5013343;28;20959;-73
2023/03/26 09:50:04;;;;;;;14.83;6.30;;;7.10;99.90;;;;;;5013393;28;20462;-73
2023/03/26 09:52:54;;;;;;;19.10;6.10;;;7.10;99.90;;;;;;5013991;28;20459;-74
2023/03/26 09:55:45;;;;;;;17.83;7.63;;;7.20;99.90;;;;;;5006578;28;20892;-72
2023/03/26 09:58:31;;;;;;;26.00;6.83;;;7.20;99.90;;;;;;5007407;28;20824;-71
2023/03/26 10:01:05;;;;;;;15.17;6.37;;;7.20;99.90;;;;;;5014020;28;20447;-76
2023/03/26 10:03:52;;;;;;;15.27;5.83;;;7.30;99.90;;;;;;5013715;28;20502;-78
2023/03/26 10:06:44;;;;;;;12.00;6.07;;;7.30;99.90;;;;;;5006151;28;20883;-75
2023/03/26 10:09:26;;;;;;;9.93;5.33;;;7.30;99.90;;;;;;5012277;28;20470;-75
2023/03/26 10:12:09;;;;;;;11.43;5.70;;;7.30;99.90;;;;;;5013814;28;20510;-76
2023/03/26 10:14:43;;;;;;;9.37;4.40;;;7.30;99.90;;;;;;5013631;28;20485;-75
2023/03/26 10:17:32;;;;;;;11.97;4.40;;;7.30;99.90;;;;;;5013006;28;20862;-75
2023/03/26 10:20:17;;;;;;;9.83;4.03;;;7.30;99.90;;;;;;5012994;28;20458;-73
2023/03/26 10:22:56;;;;;;;13.67;4.77;;;7.40;99.90;;;;;;5007064;28;20491;-74
2023/03/26 10:25:34;;;;;;;7.80;3.70;;;7.40;99.90;;;;;;5001536;28;20465;-74
2023/03/26 10:28:13;;;;;;;7.97;3.60;;;7.50;99.90;;;;;;5009881;28;20691;-73
2023/03/26 10:30:52;;;;;;;5.53;2.97;;;7.60;99.90;;;;;;5013355;28;20455;-73
2023/03/26 10:33:30;;;;;;;6.20;3.00;;;7.60;99.90;;;;;;5013198;28;20452;-73
2023/03/26 10:36:16;;;;;;;2.90;2.50;;;7.80;99.90;;;;;;5009453;28;21053;-72
2023/03/26 10:39:03;;;;;;;3.60;2.40;;;7.90;99.90;;;;;;5012380;28;20457;-73
2023/03/26 10:41:39;;;;;;;5.57;2.30;;;8.00;99.90;;;;;;5006431;28;20510;-74
2023/03/26 10:44:30;;;;;;;11.90;2.83;;;8.10;99.90;;;;;;5010505;28;20491;-72
2023/03/26 10:47:14;;;;;;;4.30;3.00;;;8.30;99.90;;;;;;5012715;28;20465;-73
2023/03/26 10:50:02;;;;;;;8.23;2.70;;;8.40;99.90;;;;;;5007243;28;20473;-74
2023/03/26 10:52:37;;;;;;;4.53;2.60;;;8.40;99.90;;;;;;5010226;28;20456;-74
2023/03/26 10:55:11;;;;;;;4.90;2.60;;;8.40;99.90;;;;;;5012599;28;20472;-74
2023/03/26 10:57:43;;;;;;;4.73;2.60;;;8.30;99.90;;;;;;5012903;28;20453;-74
2023/03/26 11:00:16;;;;;;;6.80;3.03;;;8.30;99.90;;;;;;5009133;28;20464;-75
2023/03/26 11:02:53;;;;;;;5.77;3.83;;;8.20;99.90;;;;;;5012323;28;20545;-74
2023/03/26 11:05:40;;;;;;;10.40;3.90;;;8.20;99.90;;;;;;5013031;28;20468;-76
2023/03/26 11:08:14;;;;;;;5.83;3.60;;;8.20;99.90;;;;;;5013041;28;21171;-74
2023/03/26 11:10:50;;;;;;;7.67;3.90;;;8.20;99.90;;;;;;5012833;28;20513;-74
2023/03/26 11:13:25;;;;;;;6.77;3.43;;;8.20;99.90;;;;;;5012078;28;20518;-74
2023/03/26 11:16:00;;;;;;;14.77;4.13;;;8.20;99.90;;;;;;5012835;28;20526;-74
2023/03/26 11:18:37;;;;;;;23.07;3.83;;;8.30;99.90;;;;;;5005487;28;20474;-73
2023/03/26 11:21:08;;;;;;;10.10;4.27;;;8.30;99.90;;;;;;5012295;28;20457;-73
2023/03/26 11:23:39;;;;;;;13.10;5.00;;;8.40;99.90;;;;;;5012059;28;20512;-74
2023/03/26 11:26:11;;;;;;;5.73;3.80;;;8.40;99.90;;;;;;5012199;28;20476;-74
2023/03/26 11:28:54;;;;;;;12.57;4.73;;;8.40;99.90;;;;;;5012715;28;20468;-75
2023/03/26 11:31:28;;;;;;;9.33;4.10;;;8.40;99.90;;;;;;5012259;28;20947;-75
2023/03/26 11:33:58;;;;;;;8.33;4.13;;;8.40;99.90;;;;;;5010903;28;20460;-74
2023/03/26 11:36:30;;;;;;;12.10;4.20;;;8.30;99.90;;;;;;5012379;28;20463;-74
2023/03/26 11:39:01;;;;;;;11.37;5.00;;;8.20;99.90;;;;;;5012026;28;20453;-74
2023/03/26 11:41:30;;;;;;;9.27;5.03;;;8.20;99.90;;;;;;5004495;28;20458;-74
2023/03/26 11:44:01;;;;;;;14.60;5.57;;;8.10;99.90;;;;;;5007499;28;20660;-73
2023/03/26 11:46:28;;;;;;;8.00;4.43;;;8.20;99.90;;;;;;5004535;28;20447;-74
2023/03/26 11:48:58;;;;;;;7.63;4.30;;;8.30;99.90;;;;;;5012096;28;20453;-74
2023/03/26 11:51:30;;;;;;;12.73;4.93;;;8.30;99.90;;;;;;5012301;28;20529;-73
2023/03/26 11:53:58;;;;;;;6.73;4.10;;;8.40;99.90;;;;;;5011598;28;20817;-74
2023/03/26 11:56:29;;;;;;;7.07;4.43;;;8.30;99.90;;;;;;5011374;28;20448;-74
2023/03/26 11:59:01;;;;;;;6.80;4.30;;;8.30;99.90;;;;;;5007372;28;20458;-74
2023/03/26 12:01:40;;;;;;;9.13;4.63;;;8.40;99.90;;;;;;5001369;28;20452;-74
2023/03/26 12:04:12;;;;;;;9.13;4.53;;;8.40;99.90;;;;;;5009046;28;21016;-74
2023/03/26 12:06:50;;;;;;;11.30;4.90;;;8.40;99.90;;;;;;5011582;28;20554;-74
2023/03/26 12:09:18;;;;;;;7.80;4.30;;;8.40;99.90;;;;;;5009770;28;20507;-74
2023/03/26 12:11:47;;;;;;;8.93;4.90;;;8.50;99.90;;;;;;5011242;28;20464;-73
2023/03/26 12:14:18;;;;;;;10.30;4.90;;;8.60;99.90;;;;;;5011237;28;21000;-72
2023/03/26 12:16:59;;;;;;;8.00;4.27;;;8.90;99.90;;;;;;5012142;28;20466;-76
2023/03/26 12:19:27;;;;;;;12.13;4.40;;;9.00;99.90;;;;;;5011560;28;20451;-74
2023/03/26 12:21:54;;;;;;;12.63;4.63;;;9.00;99.90;;;;;;5011392;28;21150;-72
2023/03/26 12:24:29;;;;;;;8.33;4.17;;;9.00;99.90;;;;;;5011455;28;20508;-72
2023/03/26 12:27:00;;;;;;;6.50;4.20;;;8.90;99.90;;;;;;5011084;28;20830;-72
2023/03/26 12:29:28;;;;;;;7.30;4.10;;;8.90;99.90;;;;;;5011314;28;20458;-72
2023/03/26 12:31:56;;;;;;;9.73;4.43;;;8.90;99.90;;;;;;5009020;28;20977;-72
2023/03/26 12:34:33;;;;;;;6.43;3.90;;;8.90;99.90;;;;;;5010039;28;20986;-73
2023/03/26 12:37:00;;;;;;;5.87;4.10;;;8.90;99.90;;;;;;5008590;28;20974;-72
2023/03/26 12:39:32;;;;;;;7.90;4.83;;;8.90;99.90;;;;;;5003267;28;21016;-73
2023/03/26 12:42:00;;;;;;;6.80;4.00;;;8.90;99.90;;;;;;5011033;28;20453;-72
2023/03/26 12:44:30;;;;;;;4.70;3.97;;;9.00;99.90;;;;;;5014573;28;20521;-72
2023/03/26 12:47:14;;;;;;;9.07;4.57;;;9.00;99.90;;;;;;5017610;28;20453;-72
2023/03/26 12:49:41;;;;;;;12.30;4.50;;;9.10;99.90;;;;;;5011780;28;20461;-72
2023/03/26 12:52:21;;;;;;;9.80;4.10;;;9.10;99.90;;;;;;5015856;28;20453;-73
2023/03/26 12:54:58;;;;;;;8.83;4.73;;;9.10;99.90;;;;;;5017117;28;20485;-73
2023/03/26 12:57:31;;;;;;;6.77;4.47;;;9.10;99.90;;;;;;5010929;28;21099;-73
2023/03/26 13:00:27;;;;;;;10.37;5.10;;;9.10;99.90;;;;;;5012112;28;20459;-74
2023/03/26 13:03:10;;;;;;;11.60;5.13;;;9.10;99.90;;;;;;5007223;28;21065;-74
2023/03/26 13:05:53;;;;;;;8.00;4.53;;;9.10;99.90;;;;;;5017771;28;20513;-73
2023/03/26 13:08:39;;;;;;;8.73;4.73;;;9.20;99.90;;;;;;5017819;28;20863;-73
2023/03/26 13:11:13;;;;;;;8.17;4.90;;;9.50;99.90;;;;;;5014512;28;20469;-73
2023/03/26 13:14:08;;;;;;;6.10;3.57;;;9.70;99.90;;;;;;5017464;28;20455;-73
2023/03/26 13:16:40;;;;;;;3.83;3.53;;;9.90;99.90;;;;;;5017291;28;20458;-73
2023/03/26 13:19:11;;;;;;;4.50;3.20;;;10.00;99.90;;;;;;5011120;28;20451;-73
2023/03/26 13:21:50;;;;;;;4.57;3.90;;;10.30;99.90;;;;;;5017475;28;20458;-73